Terminal Aerodrome Forecast
Issued by NWS Sterling, VA

Current Version | Previous Version | Graphics & Text | Print | Product List | Glossary On
Versions: 1 2 3 4 5 6 7 8 9 10 11 12 13 14 15 16 17 18 19 20 21 22 23 24 25
000
FTUS41 KLWX 090830 AAA
TAFDCA
TAF AMD
KDCA 090830Z 0909/1012 00000KT P6SM OVC060
     FM091100 VRB03KT 5SM -SN OVC030
     FM091300 02005KT 1SM -SN OVC008
     FM091900 04005KT 3SM -SN OVC015
     FM092100 32004KT P6SM OVC035=

USA.gov is the U.S. government's official web portal to all federal, state and local government web resources and services.